sensor_id;sensor_type;location;lat;lon;timestamp;P1;durP1;ratioP1;P2;durP2;ratioP2
49109;SDS011;34921;52.320;16.142;2023-07-13T00:00:53;5.17;;;2.52;;
49109;SDS011;34921;52.320;16.142;2023-07-13T00:03:39;5.12;;;2.42;;
49109;SDS011;34921;52.320;16.142;2023-07-13T00:06:08;5.17;;;3.00;;
49109;SDS011;34921;52.320;16.142;2023-07-13T00:08:36;6.00;;;2.65;;
49109;SDS011;34921;52.320;16.142;2023-07-13T00:11:05;8.50;;;3.00;;
49109;SDS011;34921;52.320;16.142;2023-07-13T00:13:34;5.72;;;2.72;;
49109;SDS011;34921;52.320;16.142;2023-07-13T00:16:02;7.40;;;2.83;;
49109;SDS011;34921;52.320;16.142;2023-07-13T00:18:30;5.53;;;2.50;;
49109;SDS011;34921;52.320;16.142;2023-07-13T00:20:58;5.60;;;2.25;;
49109;SDS011;34921;52.320;16.142;2023-07-13T00:23:33;5.78;;;2.45;;
49109;SDS011;34921;52.320;16.142;2023-07-13T00:26:03;6.20;;;2.80;;
49109;SDS011;34921;52.320;16.142;2023-07-13T00:28:33;5.40;;;2.33;;
49109;SDS011;34921;52.320;16.142;2023-07-13T00:31:01;6.95;;;2.90;;
49109;SDS011;34921;52.320;16.142;2023-07-13T00:33:29;6.35;;;2.80;;
49109;SDS011;34921;52.320;16.142;2023-07-13T00:35:57;5.47;;;3.20;;
49109;SDS011;34921;52.320;16.142;2023-07-13T00:38:25;5.28;;;2.92;;
49109;SDS011;34921;52.320;16.142;2023-07-13T00:40:53;9.55;;;2.77;;
49109;SDS011;34921;52.320;16.142;2023-07-13T00:43:22;5.85;;;2.72;;
49109;SDS011;34921;52.320;16.142;2023-07-13T00:48:29;7.03;;;2.43;;
49109;SDS011;34921;52.320;16.142;2023-07-13T00:51:00;6.00;;;2.85;;
49109;SDS011;34921;52.320;16.142;2023-07-13T00:53:29;6.12;;;2.60;;
49109;SDS011;34921;52.320;16.142;2023-07-13T00:55:58;5.33;;;3.00;;
49109;SDS011;34921;52.320;16.142;2023-07-13T00:58:27;5.53;;;2.85;;
49109;SDS011;34921;52.320;16.142;2023-07-13T01:00:56;5.03;;;2.55;;
49109;SDS011;34921;52.320;16.142;2023-07-13T01:03:24;5.27;;;2.77;;
49109;SDS011;34921;52.320;16.142;2023-07-13T01:05:52;6.10;;;2.65;;
49109;SDS011;34921;52.320;16.142;2023-07-13T01:08:21;8.85;;;2.65;;
49109;SDS011;34921;52.320;16.142;2023-07-13T01:10:53;5.35;;;2.42;;
49109;SDS011;34921;52.320;16.142;2023-07-13T01:13:22;5.60;;;2.37;;
49109;SDS011;34921;52.320;16.142;2023-07-13T01:15:51;4.53;;;2.83;;
49109;SDS011;34921;52.320;16.142;2023-07-13T01:18:22;6.50;;;2.33;;
49109;SDS011;34921;52.320;16.142;2023-07-13T01:20:59;7.30;;;2.27;;
49109;SDS011;34921;52.320;16.142;2023-07-13T01:23:28;6.12;;;2.67;;
49109;SDS011;34921;52.320;16.142;2023-07-13T01:25:57;4.62;;;2.40;;
49109;SDS011;34921;52.320;16.142;2023-07-13T01:28:26;7.20;;;2.50;;
49109;SDS011;34921;52.320;16.142;2023-07-13T01:30:55;6.95;;;3.00;;
49109;SDS011;34921;52.320;16.142;2023-07-13T01:33:24;4.75;;;2.30;;
49109;SDS011;34921;52.320;16.142;2023-07-13T01:35:53;5.17;;;2.42;;
49109;SDS011;34921;52.320;16.142;2023-07-13T01:38:21;7.47;;;2.60;;
49109;SDS011;34921;52.320;16.142;2023-07-13T01:40:51;4.40;;;2.57;;
49109;SDS011;34921;52.320;16.142;2023-07-13T01:43:19;6.28;;;2.25;;
49109;SDS011;34921;52.320;16.142;2023-07-13T01:45:48;5.42;;;2.77;;
49109;SDS011;34921;52.320;16.142;2023-07-13T01:48:16;4.15;;;2.33;;
49109;SDS011;34921;52.320;16.142;2023-07-13T01:50:44;4.67;;;2.15;;
49109;SDS011;34921;52.320;16.142;2023-07-13T01:53:12;5.55;;;2.15;;
49109;SDS011;34921;52.320;16.142;2023-07-13T01:55:41;5.15;;;2.22;;
49109;SDS011;34921;52.320;16.142;2023-07-13T01:58:10;6.37;;;2.30;;
49109;SDS011;34921;52.320;16.142;2023-07-13T02:00:37;5.58;;;2.45;;
49109;SDS011;34921;52.320;16.142;2023-07-13T02:03:05;4.33;;;2.45;;
49109;SDS011;34921;52.320;16.142;2023-07-13T02:05:33;6.40;;;2.58;;
49109;SDS011;34921;52.320;16.142;2023-07-13T02:08:01;4.00;;;2.42;;
49109;SDS011;34921;52.320;16.142;2023-07-13T02:10:29;5.85;;;2.45;;
49109;SDS011;34921;52.320;16.142;2023-07-13T02:12:57;5.83;;;2.27;;
49109;SDS011;34921;52.320;16.142;2023-07-13T02:15:25;6.28;;;2.70;;
49109;SDS011;34921;52.320;16.142;2023-07-13T02:17:53;5.75;;;2.45;;
49109;SDS011;34921;52.320;16.142;2023-07-13T02:20:21;6.03;;;2.42;;
49109;SDS011;34921;52.320;16.142;2023-07-13T02:22:49;6.35;;;2.72;;
49109;SDS011;34921;52.320;16.142;2023-07-13T02:25:17;4.58;;;2.52;;
49109;SDS011;34921;52.320;16.142;2023-07-13T02:27:45;4.75;;;2.42;;
49109;SDS011;34921;52.320;16.142;2023-07-13T02:30:13;4.40;;;2.47;;
49109;SDS011;34921;52.320;16.142;2023-07-13T02:32:41;5.33;;;2.35;;
49109;SDS011;34921;52.320;16.142;2023-07-13T02:35:11;6.17;;;2.70;;
49109;SDS011;34921;52.320;16.142;2023-07-13T02:37:39;4.70;;;2.55;;
49109;SDS011;34921;52.320;16.142;2023-07-13T02:40:07;3.42;;;2.35;;
49109;SDS011;34921;52.320;16.142;2023-07-13T02:42:36;5.15;;;2.62;;
49109;SDS011;34921;52.320;16.142;2023-07-13T02:45:04;6.10;;;2.60;;
49109;SDS011;34921;52.320;16.142;2023-07-13T02:47:32;5.97;;;2.77;;
49109;SDS011;34921;52.320;16.142;2023-07-13T02:50:00;4.65;;;2.90;;
49109;SDS011;34921;52.320;16.142;2023-07-13T02:52:29;7.42;;;2.33;;
49109;SDS011;34921;52.320;16.142;2023-07-13T02:54:56;4.72;;;2.60;;
49109;SDS011;34921;52.320;16.142;2023-07-13T02:57:25;7.00;;;2.72;;
49109;SDS011;34921;52.320;16.142;2023-07-13T02:59:53;4.62;;;2.85;;
49109;SDS011;34921;52.320;16.142;2023-07-13T03:02:21;5.17;;;2.77;;
49109;SDS011;34921;52.320;16.142;2023-07-13T03:04:48;4.87;;;2.67;;
49109;SDS011;34921;52.320;16.142;2023-07-13T03:07:16;5.42;;;2.50;;
49109;SDS011;34921;52.320;16.142;2023-07-13T03:09:44;4.53;;;2.52;;
49109;SDS011;34921;52.320;16.142;2023-07-13T03:12:12;6.25;;;2.60;;
49109;SDS011;34921;52.320;16.142;2023-07-13T03:14:40;5.72;;;2.90;;
49109;SDS011;34921;52.320;16.142;2023-07-13T03:17:08;6.10;;;3.00;;
49109;SDS011;34921;52.320;16.142;2023-07-13T03:19:36;6.75;;;2.90;;
49109;SDS011;34921;52.320;16.142;2023-07-13T03:22:04;5.05;;;2.85;;
49109;SDS011;34921;52.320;16.142;2023-07-13T03:24:33;4.03;;;2.67;;
49109;SDS011;34921;52.320;16.142;2023-07-13T03:27:01;5.47;;;2.87;;
49109;SDS011;34921;52.320;16.142;2023-07-13T03:29:31;8.03;;;3.00;;
49109;SDS011;34921;52.320;16.142;2023-07-13T03:31:59;7.97;;;3.47;;
49109;SDS011;34921;52.320;16.142;2023-07-13T03:34:27;5.75;;;3.00;;
49109;SDS011;34921;52.320;16.142;2023-07-13T03:36:55;4.53;;;2.83;;
49109;SDS011;34921;52.320;16.142;2023-07-13T03:39:23;7.45;;;3.20;;
49109;SDS011;34921;52.320;16.142;2023-07-13T03:41:51;4.00;;;2.90;;
49109;SDS011;34921;52.320;16.142;2023-07-13T03:44:19;5.37;;;2.70;;
49109;SDS011;34921;52.320;16.142;2023-07-13T03:46:47;7.53;;;3.72;;
49109;SDS011;34921;52.320;16.142;2023-07-13T03:49:15;5.90;;;2.92;;
49109;SDS011;34921;52.320;16.142;2023-07-13T03:51:43;7.20;;;3.70;;
49109;SDS011;34921;52.320;16.142;2023-07-13T03:54:11;6.25;;;3.35;;
49109;SDS011;34921;52.320;16.142;2023-07-13T03:56:39;9.83;;;3.22;;
49109;SDS011;34921;52.320;16.142;2023-07-13T03:59:07;5.50;;;3.30;;
49109;SDS011;34921;52.320;16.142;2023-07-13T04:01:35;6.07;;;3.60;;
49109;SDS011;34921;52.320;16.142;2023-07-13T04:04:03;9.55;;;3.65;;
49109;SDS011;34921;52.320;16.142;2023-07-13T04:06:31;9.23;;;3.70;;
49109;SDS011;34921;52.320;16.142;2023-07-13T04:09:00;5.90;;;3.45;;
49109;SDS011;34921;52.320;16.142;2023-07-13T04:13:59;6.53;;;3.52;;
49109;SDS011;34921;52.320;16.142;2023-07-13T04:16:27;5.12;;;2.92;;
49109;SDS011;34921;52.320;16.142;2023-07-13T04:18:55;8.35;;;2.80;;
49109;SDS011;34921;52.320;16.142;2023-07-13T04:21:27;7.17;;;3.08;;
49109;SDS011;34921;52.320;16.142;2023-07-13T04:23:56;5.85;;;2.75;;
49109;SDS011;34921;52.320;16.142;2023-07-13T04:26:24;4.00;;;2.62;;
49109;SDS011;34921;52.320;16.142;2023-07-13T04:28:52;6.30;;;3.00;;
49109;SDS011;34921;52.320;16.142;2023-07-13T04:31:20;3.98;;;2.52;;
49109;SDS011;34921;52.320;16.142;2023-07-13T04:33:48;5.87;;;2.60;;
49109;SDS011;34921;52.320;16.142;2023-07-13T04:36:16;5.40;;;2.80;;
49109;SDS011;34921;52.320;16.142;2023-07-13T04:38:44;5.95;;;3.00;;
49109;SDS011;34921;52.320;16.142;2023-07-13T04:41:12;4.25;;;2.55;;
49109;SDS011;34921;52.320;16.142;2023-07-13T04:43:42;7.37;;;2.92;;
49109;SDS011;34921;52.320;16.142;2023-07-13T04:46:11;4.92;;;2.95;;
49109;SDS011;34921;52.320;16.142;2023-07-13T04:51:09;5.65;;;2.90;;
49109;SDS011;34921;52.320;16.142;2023-07-13T04:53:37;7.50;;;3.45;;
49109;SDS011;34921;52.320;16.142;2023-07-13T04:56:06;6.53;;;3.40;;
49109;SDS011;34921;52.320;16.142;2023-07-13T04:58:34;5.08;;;3.00;;
49109;SDS011;34921;52.320;16.142;2023-07-13T05:01:03;6.50;;;2.90;;
49109;SDS011;34921;52.320;16.142;2023-07-13T05:03:33;4.08;;;3.00;;
49109;SDS011;34921;52.320;16.142;2023-07-13T05:06:05;4.30;;;2.72;;
49109;SDS011;34921;52.320;16.142;2023-07-13T05:08:35;6.55;;;3.10;;
49109;SDS011;34921;52.320;16.142;2023-07-13T05:11:03;4.37;;;2.80;;
49109;SDS011;34921;52.320;16.142;2023-07-13T05:13:33;6.03;;;3.20;;
49109;SDS011;34921;52.320;16.142;2023-07-13T05:16:01;3.95;;;2.90;;
49109;SDS011;34921;52.320;16.142;2023-07-13T05:18:31;5.63;;;2.93;;
49109;SDS011;34921;52.320;16.142;2023-07-13T05:21:01;4.60;;;3.05;;
49109;SDS011;34921;52.320;16.142;2023-07-13T05:23:31;5.20;;;3.00;;
49109;SDS011;34921;52.320;16.142;2023-07-13T05:25:59;4.72;;;2.70;;
49109;SDS011;34921;52.320;16.142;2023-07-13T05:28:29;5.85;;;2.70;;
49109;SDS011;34921;52.320;16.142;2023-07-13T05:30:58;4.95;;;2.95;;
49109;SDS011;34921;52.320;16.142;2023-07-13T05:33:26;5.67;;;2.75;;
49109;SDS011;34921;52.320;16.142;2023-07-13T05:35:55;4.92;;;2.60;;
49109;SDS011;34921;52.320;16.142;2023-07-13T05:38:23;5.10;;;2.70;;
49109;SDS011;34921;52.320;16.142;2023-07-13T05:40:54;5.85;;;2.80;;
49109;SDS011;34921;52.320;16.142;2023-07-13T05:43:23;4.65;;;2.60;;
49109;SDS011;34921;52.320;16.142;2023-07-13T05:45:55;5.20;;;2.67;;
49109;SDS011;34921;52.320;16.142;2023-07-13T05:48:24;3.37;;;2.27;;
49109;SDS011;34921;52.320;16.142;2023-07-13T05:50:52;4.70;;;2.60;;
49109;SDS011;34921;52.320;16.142;2023-07-13T05:53:20;4.47;;;2.87;;
49109;SDS011;34921;52.320;16.142;2023-07-13T05:55:48;4.97;;;2.77;;
49109;SDS011;34921;52.320;16.142;2023-07-13T05:58:20;3.10;;;2.20;;
49109;SDS011;34921;52.320;16.142;2023-07-13T06:00:58;4.92;;;2.75;;
49109;SDS011;34921;52.320;16.142;2023-07-13T06:03:28;4.70;;;2.70;;
49109;SDS011;34921;52.320;16.142;2023-07-13T06:05:56;4.53;;;2.70;;
49109;SDS011;34921;52.320;16.142;2023-07-13T06:08:25;3.80;;;2.42;;
49109;SDS011;34921;52.320;16.142;2023-07-13T06:10:54;4.58;;;2.83;;
49109;SDS011;34921;52.320;16.142;2023-07-13T06:15:52;6.00;;;2.50;;
49109;SDS011;34921;52.320;16.142;2023-07-13T06:18:20;5.03;;;2.47;;
49109;SDS011;34921;52.320;16.142;2023-07-13T06:20:49;3.98;;;2.55;;
49109;SDS011;34921;52.320;16.142;2023-07-13T06:23:17;5.30;;;2.77;;
49109;SDS011;34921;52.320;16.142;2023-07-13T06:25:45;4.30;;;2.90;;
49109;SDS011;34921;52.320;16.142;2023-07-13T06:28:13;4.05;;;2.50;;
49109;SDS011;34921;52.320;16.142;2023-07-13T06:30:41;5.00;;;3.35;;
49109;SDS011;34921;52.320;16.142;2023-07-13T06:33:09;6.30;;;2.80;;
49109;SDS011;34921;52.320;16.142;2023-07-13T06:35:37;3.58;;;2.60;;
49109;SDS011;34921;52.320;16.142;2023-07-13T06:38:05;4.05;;;2.70;;
49109;SDS011;34921;52.320;16.142;2023-07-13T06:40:34;5.45;;;2.70;;
49109;SDS011;34921;52.320;16.142;2023-07-13T06:43:02;4.00;;;2.83;;
49109;SDS011;34921;52.320;16.142;2023-07-13T06:48:04;4.55;;;2.80;;
49109;SDS011;34921;52.320;16.142;2023-07-13T06:50:33;3.95;;;2.70;;
49109;SDS011;34921;52.320;16.142;2023-07-13T06:53:01;4.95;;;2.90;;
49109;SDS011;34921;52.320;16.142;2023-07-13T06:55:29;4.55;;;2.83;;
49109;SDS011;34921;52.320;16.142;2023-07-13T06:57:57;5.05;;;3.02;;
49109;SDS011;34921;52.320;16.142;2023-07-13T07:00:25;4.28;;;2.72;;
49109;SDS011;34921;52.320;16.142;2023-07-13T07:02:53;5.37;;;3.08;;
49109;SDS011;34921;52.320;16.142;2023-07-13T07:05:21;4.83;;;2.60;;
49109;SDS011;34921;52.320;16.142;2023-07-13T07:07:49;4.28;;;2.67;;
49109;SDS011;34921;52.320;16.142;2023-07-13T07:10:18;4.67;;;2.62;;
49109;SDS011;34921;52.320;16.142;2023-07-13T07:12:46;4.58;;;2.60;;
49109;SDS011;34921;52.320;16.142;2023-07-13T07:15:15;4.37;;;2.90;;
49109;SDS011;34921;52.320;16.142;2023-07-13T07:17:44;4.57;;;2.70;;
49109;SDS011;34921;52.320;16.142;2023-07-13T07:20:12;4.03;;;2.70;;
49109;SDS011;34921;52.320;16.142;2023-07-13T07:22:40;5.83;;;2.70;;
49109;SDS011;34921;52.320;16.142;2023-07-13T07:25:08;6.75;;;2.67;;
49109;SDS011;34921;52.320;16.142;2023-07-13T07:27:36;4.80;;;2.70;;
49109;SDS011;34921;52.320;16.142;2023-07-13T07:30:04;5.00;;;2.45;;
49109;SDS011;34921;52.320;16.142;2023-07-13T07:32:33;3.65;;;2.70;;
49109;SDS011;34921;52.320;16.142;2023-07-13T07:35:01;4.22;;;2.22;;
49109;SDS011;34921;52.320;16.142;2023-07-13T07:37:29;6.07;;;2.50;;
49109;SDS011;34921;52.320;16.142;2023-07-13T07:39:57;4.12;;;2.58;;
49109;SDS011;34921;52.320;16.142;2023-07-13T07:42:25;4.65;;;2.40;;
49109;SDS011;34921;52.320;16.142;2023-07-13T07:44:53;5.08;;;2.45;;
49109;SDS011;34921;52.320;16.142;2023-07-13T07:47:21;4.35;;;2.50;;
49109;SDS011;34921;52.320;16.142;2023-07-13T07:49:50;9.10;;;3.10;;
49109;SDS011;34921;52.320;16.142;2023-07-13T07:52:18;4.00;;;2.47;;
49109;SDS011;34921;52.320;16.142;2023-07-13T07:54:46;4.15;;;2.47;;
49109;SDS011;34921;52.320;16.142;2023-07-13T07:57:15;4.28;;;2.12;;
49109;SDS011;34921;52.320;16.142;2023-07-13T07:59:42;4.22;;;2.25;;
49109;SDS011;34921;52.320;16.142;2023-07-13T08:02:10;4.03;;;2.30;;
49109;SDS011;34921;52.320;16.142;2023-07-13T08:04:39;5.42;;;2.22;;
49109;SDS011;34921;52.320;16.142;2023-07-13T08:07:07;5.15;;;2.33;;
49109;SDS011;34921;52.320;16.142;2023-07-13T08:09:35;5.60;;;2.08;;
49109;SDS011;34921;52.320;16.142;2023-07-13T08:12:03;3.77;;;2.17;;
49109;SDS011;34921;52.320;16.142;2023-07-13T08:14:32;4.58;;;2.20;;
49109;SDS011;34921;52.320;16.142;2023-07-13T08:17:00;4.87;;;2.50;;
49109;SDS011;34921;52.320;16.142;2023-07-13T08:19:28;6.53;;;2.30;;
49109;SDS011;34921;52.320;16.142;2023-07-13T08:21:55;3.92;;;2.10;;
49109;SDS011;34921;52.320;16.142;2023-07-13T08:24:23;6.65;;;2.25;;
49109;SDS011;34921;52.320;16.142;2023-07-13T08:26:51;4.67;;;2.25;;
49109;SDS011;34921;52.320;16.142;2023-07-13T08:29:20;5.58;;;2.10;;
49109;SDS011;34921;52.320;16.142;2023-07-13T08:31:48;3.62;;;1.87;;
49109;SDS011;34921;52.320;16.142;2023-07-13T08:34:16;3.62;;;1.70;;
49109;SDS011;34921;52.320;16.142;2023-07-13T08:36:43;4.12;;;1.67;;
49109;SDS011;34921;52.320;16.142;2023-07-13T08:39:11;6.58;;;2.12;;
49109;SDS011;34921;52.320;16.142;2023-07-13T08:41:40;3.33;;;1.70;;
49109;SDS011;34921;52.320;16.142;2023-07-13T08:44:18;4.17;;;1.60;;
49109;SDS011;34921;52.320;16.142;2023-07-13T08:47:03;5.00;;;1.67;;
49109;SDS011;34921;52.320;16.142;2023-07-13T08:49:32;4.03;;;1.80;;
49109;SDS011;34921;52.320;16.142;2023-07-13T08:52:02;3.15;;;1.65;;
49109;SDS011;34921;52.320;16.142;2023-07-13T08:54:41;4.05;;;1.75;;
49109;SDS011;34921;52.320;16.142;2023-07-13T08:57:16;3.40;;;1.55;;
49109;SDS011;34921;52.320;16.142;2023-07-13T08:59:45;3.62;;;1.42;;
49109;SDS011;34921;52.320;16.142;2023-07-13T09:02:26;3.62;;;1.40;;
49109;SDS011;34921;52.320;16.142;2023-07-13T09:04:59;6.23;;;1.70;;
49109;SDS011;34921;52.320;16.142;2023-07-13T09:10:05;3.02;;;1.40;;
49109;SDS011;34921;52.320;16.142;2023-07-13T09:12:49;3.33;;;1.47;;
49109;SDS011;34921;52.320;16.142;2023-07-13T09:15:45;4.62;;;1.92;;
49109;SDS011;34921;52.320;16.142;2023-07-13T09:23:36;3.77;;;1.50;;
49109;SDS011;34921;52.320;16.142;2023-07-13T09:26:07;4.87;;;1.60;;
49109;SDS011;34921;52.320;16.142;2023-07-13T09:28:48;4.17;;;1.40;;
49109;SDS011;34921;52.320;16.142;2023-07-13T09:31:30;4.97;;;1.65;;
49109;SDS011;34921;52.320;16.142;2023-07-13T09:34:02;3.42;;;1.60;;
49109;SDS011;34921;52.320;16.142;2023-07-13T09:36:32;4.43;;;1.60;;
49109;SDS011;34921;52.320;16.142;2023-07-13T09:39:08;4.50;;;1.40;;
49109;SDS011;34921;52.320;16.142;2023-07-13T09:44:16;4.85;;;1.55;;
49109;SDS011;34921;52.320;16.142;2023-07-13T09:46:47;3.20;;;1.40;;
49109;SDS011;34921;52.320;16.142;2023-07-13T09:49:25;4.30;;;1.50;;
49109;SDS011;34921;52.320;16.142;2023-07-13T09:52:01;3.65;;;1.32;;
49109;SDS011;34921;52.320;16.142;2023-07-13T09:54:33;3.37;;;1.40;;
49109;SDS011;34921;52.320;16.142;2023-07-13T09:57:08;4.70;;;1.60;;
49109;SDS011;34921;52.320;16.142;2023-07-13T09:59:44;4.05;;;1.15;;
49109;SDS011;34921;52.320;16.142;2023-07-13T10:02:30;3.50;;;1.70;;
49109;SDS011;34921;52.320;16.142;2023-07-13T10:07:31;4.45;;;1.57;;
49109;SDS011;34921;52.320;16.142;2023-07-13T10:10:00;3.80;;;1.60;;
49109;SDS011;34921;52.320;16.142;2023-07-13T10:12:29;4.25;;;1.70;;
49109;SDS011;34921;52.320;16.142;2023-07-13T10:14:58;3.10;;;1.50;;
49109;SDS011;34921;52.320;16.142;2023-07-13T10:17:29;3.15;;;1.50;;
49109;SDS011;34921;52.320;16.142;2023-07-13T10:20:04;3.70;;;1.70;;
49109;SDS011;34921;52.320;16.142;2023-07-13T10:25:31;3.62;;;1.50;;
49109;SDS011;34921;52.320;16.142;2023-07-13T10:28:03;4.50;;;1.70;;
49109;SDS011;34921;52.320;16.142;2023-07-13T10:30:39;4.03;;;1.72;;
49109;SDS011;34921;52.320;16.142;2023-07-13T10:33:10;3.87;;;1.50;;
49109;SDS011;34921;52.320;16.142;2023-07-13T10:35:40;3.25;;;1.45;;
49109;SDS011;34921;52.320;16.142;2023-07-13T10:38:11;4.70;;;1.40;;
49109;SDS011;34921;52.320;16.142;2023-07-13T10:40:43;3.47;;;1.37;;
49109;SDS011;34921;52.320;16.142;2023-07-13T10:43:21;3.02;;;1.50;;
49109;SDS011;34921;52.320;16.142;2023-07-13T10:45:54;2.93;;;1.30;;
49109;SDS011;34921;52.320;16.142;2023-07-13T10:48:22;5.83;;;1.40;;
49109;SDS011;34921;52.320;16.142;2023-07-13T10:50:51;3.40;;;1.17;;
49109;SDS011;34921;52.320;16.142;2023-07-13T10:53:22;5.87;;;1.47;;
49109;SDS011;34921;52.320;16.142;2023-07-13T10:56:01;3.60;;;1.40;;
49109;SDS011;34921;52.320;16.142;2023-07-13T10:58:37;2.75;;;1.10;;
49109;SDS011;34921;52.320;16.142;2023-07-13T11:01:09;3.87;;;1.37;;
49109;SDS011;34921;52.320;16.142;2023-07-13T11:03:50;2.90;;;1.47;;
49109;SDS011;34921;52.320;16.142;2023-07-13T11:28:18;3.00;;;1.22;;
49109;SDS011;34921;52.320;16.142;2023-07-13T11:33:23;3.70;;;1.35;;
49109;SDS011;34921;52.320;16.142;2023-07-13T11:36:12;3.10;;;1.12;;
49109;SDS011;34921;52.320;16.142;2023-07-13T11:38:51;3.00;;;1.20;;
49109;SDS011;34921;52.320;16.142;2023-07-13T11:41:32;3.52;;;1.42;;
49109;SDS011;34921;52.320;16.142;2023-07-13T11:44:22;3.22;;;1.30;;
49109;SDS011;34921;52.320;16.142;2023-07-13T11:46:55;5.72;;;1.27;;
49109;SDS011;34921;52.320;16.142;2023-07-13T11:49:29;5.58;;;1.40;;
49109;SDS011;34921;52.320;16.142;2023-07-13T11:51:58;3.90;;;1.40;;
49109;SDS011;34921;52.320;16.142;2023-07-13T11:54:34;3.95;;;1.22;;
49109;SDS011;34921;52.320;16.142;2023-07-13T12:00:04;2.50;;;1.40;;
49109;SDS011;34921;52.320;16.142;2023-07-13T12:02:40;3.30;;;1.00;;
49109;SDS011;34921;52.320;16.142;2023-07-13T12:05:14;4.83;;;1.40;;
49109;SDS011;34921;52.320;16.142;2023-07-13T12:07:45;4.87;;;1.60;;
49109;SDS011;34921;52.320;16.142;2023-07-13T12:15:34;2.70;;;1.30;;
49109;SDS011;34921;52.320;16.142;2023-07-13T12:18:19;4.95;;;1.40;;
49109;SDS011;34921;52.320;16.142;2023-07-13T12:20:48;4.47;;;1.40;;
49109;SDS011;34921;52.320;16.142;2023-07-13T12:23:24;4.27;;;2.10;;
49109;SDS011;34921;52.320;16.142;2023-07-13T12:25:53;3.65;;;1.25;;
49109;SDS011;34921;52.320;16.142;2023-07-13T12:28:22;4.60;;;1.15;;
49109;SDS011;34921;52.320;16.142;2023-07-13T12:31:32;3.58;;;1.20;;
49109;SDS011;34921;52.320;16.142;2023-07-13T12:34:12;4.40;;;1.20;;
49109;SDS011;34921;52.320;16.142;2023-07-13T12:36:46;2.62;;;1.30;;
49109;SDS011;34921;52.320;16.142;2023-07-13T12:39:20;2.97;;;1.27;;
49109;SDS011;34921;52.320;16.142;2023-07-13T12:41:59;3.10;;;1.03;;
49109;SDS011;34921;52.320;16.142;2023-07-13T12:44:49;2.85;;;1.20;;
49109;SDS011;34921;52.320;16.142;2023-07-13T12:47:19;3.33;;;1.20;;
49109;SDS011;34921;52.320;16.142;2023-07-13T12:49:49;3.72;;;1.10;;
49109;SDS011;34921;52.320;16.142;2023-07-13T12:52:23;5.00;;;1.30;;
49109;SDS011;34921;52.320;16.142;2023-07-13T12:58:02;3.75;;;1.37;;
49109;SDS011;34921;52.320;16.142;2023-07-13T13:00:33;2.52;;;1.35;;
49109;SDS011;34921;52.320;16.142;2023-07-13T13:06:20;3.90;;;1.40;;
49109;SDS011;34921;52.320;16.142;2023-07-13T13:09:00;2.70;;;1.30;;
49109;SDS011;34921;52.320;16.142;2023-07-13T13:11:29;3.58;;;1.47;;
49109;SDS011;34921;52.320;16.142;2023-07-13T13:18:55;3.95;;;1.30;;
49109;SDS011;34921;52.320;16.142;2023-07-13T13:21:26;2.92;;;1.17;;
49109;SDS011;34921;52.320;16.142;2023-07-13T13:23:54;3.87;;;1.27;;
49109;SDS011;34921;52.320;16.142;2023-07-13T13:26:23;3.00;;;1.32;;
49109;SDS011;34921;52.320;16.142;2023-07-13T13:28:51;3.65;;;1.50;;
49109;SDS011;34921;52.320;16.142;2023-07-13T13:31:20;4.03;;;1.52;;
49109;SDS011;34921;52.320;16.142;2023-07-13T13:33:47;4.20;;;1.20;;
49109;SDS011;34921;52.320;16.142;2023-07-13T13:36:16;3.75;;;1.50;;
49109;SDS011;34921;52.320;16.142;2023-07-13T13:38:47;4.15;;;1.12;;
49109;SDS011;34921;52.320;16.142;2023-07-13T13:41:16;2.17;;;1.20;;
49109;SDS011;34921;52.320;16.142;2023-07-13T13:43:44;3.62;;;1.40;;
49109;SDS011;34921;52.320;16.142;2023-07-13T13:46:14;5.35;;;1.37;;
49109;SDS011;34921;52.320;16.142;2023-07-13T13:48:44;2.80;;;1.30;;
49109;SDS011;34921;52.320;16.142;2023-07-13T13:51:14;6.50;;;1.70;;
49109;SDS011;34921;52.320;16.142;2023-07-13T13:53:44;4.25;;;1.35;;
49109;SDS011;34921;52.320;16.142;2023-07-13T13:56:17;3.40;;;1.35;;
49109;SDS011;34921;52.320;16.142;2023-07-13T13:58:46;3.02;;;1.22;;
49109;SDS011;34921;52.320;16.142;2023-07-13T14:01:19;2.80;;;1.23;;
49109;SDS011;34921;52.320;16.142;2023-07-13T14:03:48;3.77;;;1.27;;
49109;SDS011;34921;52.320;16.142;2023-07-13T14:06:19;3.55;;;1.37;;
49109;SDS011;34921;52.320;16.142;2023-07-13T14:08:47;2.60;;;1.27;;
49109;SDS011;34921;52.320;16.142;2023-07-13T14:11:16;4.47;;;1.40;;
49109;SDS011;34921;52.320;16.142;2023-07-13T14:13:52;2.87;;;1.40;;
49109;SDS011;34921;52.320;16.142;2023-07-13T14:16:30;3.67;;;1.25;;
49109;SDS011;34921;52.320;16.142;2023-07-13T14:19:00;5.08;;;1.30;;
49109;SDS011;34921;52.320;16.142;2023-07-13T14:21:28;4.80;;;1.52;;
49109;SDS011;34921;52.320;16.142;2023-07-13T14:23:57;4.37;;;1.50;;
49109;SDS011;34921;52.320;16.142;2023-07-13T14:26:25;3.15;;;1.30;;
49109;SDS011;34921;52.320;16.142;2023-07-13T14:28:55;3.17;;;1.30;;
49109;SDS011;34921;52.320;16.142;2023-07-13T14:31:25;4.20;;;1.40;;
49109;SDS011;34921;52.320;16.142;2023-07-13T14:33:56;4.08;;;1.30;;
49109;SDS011;34921;52.320;16.142;2023-07-13T14:36:35;6.50;;;1.90;;
49109;SDS011;34921;52.320;16.142;2023-07-13T14:39:15;2.40;;;1.30;;
49109;SDS011;34921;52.320;16.142;2023-07-13T14:41:45;3.62;;;1.50;;
49109;SDS011;34921;52.320;16.142;2023-07-13T14:44:17;2.92;;;1.30;;
49109;SDS011;34921;52.320;16.142;2023-07-13T14:46:48;3.87;;;1.50;;
49109;SDS011;34921;52.320;16.142;2023-07-13T14:51:49;4.50;;;1.53;;
49109;SDS011;34921;52.320;16.142;2023-07-13T14:54:18;2.80;;;1.10;;
49109;SDS011;34921;52.320;16.142;2023-07-13T14:56:47;3.77;;;1.40;;
49109;SDS011;34921;52.320;16.142;2023-07-13T14:59:15;3.35;;;1.55;;
49109;SDS011;34921;52.320;16.142;2023-07-13T15:01:43;4.42;;;1.35;;
49109;SDS011;34921;52.320;16.142;2023-07-13T15:04:11;3.45;;;1.70;;
49109;SDS011;34921;52.320;16.142;2023-07-13T15:06:54;5.17;;;2.03;;
49109;SDS011;34921;52.320;16.142;2023-07-13T15:09:32;4.30;;;1.47;;
49109;SDS011;34921;52.320;16.142;2023-07-13T15:12:00;3.15;;;1.42;;
49109;SDS011;34921;52.320;16.142;2023-07-13T15:14:28;3.47;;;1.52;;
49109;SDS011;34921;52.320;16.142;2023-07-13T15:16:56;3.52;;;1.57;;
49109;SDS011;34921;52.320;16.142;2023-07-13T15:19:25;2.92;;;1.25;;
49109;SDS011;34921;52.320;16.142;2023-07-13T15:21:54;6.70;;;1.60;;
49109;SDS011;34921;52.320;16.142;2023-07-13T15:24:24;4.25;;;1.40;;
49109;SDS011;34921;52.320;16.142;2023-07-13T15:26:52;2.90;;;1.50;;
49109;SDS011;34921;52.320;16.142;2023-07-13T15:29:20;4.50;;;1.40;;
49109;SDS011;34921;52.320;16.142;2023-07-13T15:31:48;2.97;;;1.47;;
49109;SDS011;34921;52.320;16.142;2023-07-13T15:34:18;6.40;;;1.75;;
49109;SDS011;34921;52.320;16.142;2023-07-13T15:36:48;4.25;;;1.30;;
49109;SDS011;34921;52.320;16.142;2023-07-13T15:39:16;4.55;;;1.50;;
49109;SDS011;34921;52.320;16.142;2023-07-13T15:41:45;4.10;;;1.62;;
49109;SDS011;34921;52.320;16.142;2023-07-13T15:44:25;4.33;;;1.30;;
49109;SDS011;34921;52.320;16.142;2023-07-13T15:46:58;3.23;;;1.33;;
49109;SDS011;34921;52.320;16.142;2023-07-13T15:49:28;4.60;;;1.47;;
49109;SDS011;34921;52.320;16.142;2023-07-13T15:51:56;4.50;;;1.42;;
49109;SDS011;34921;52.320;16.142;2023-07-13T15:54:24;3.20;;;1.37;;
49109;SDS011;34921;52.320;16.142;2023-07-13T15:56:53;5.28;;;1.60;;
49109;SDS011;34921;52.320;16.142;2023-07-13T16:01:50;6.10;;;1.55;;
49109;SDS011;34921;52.320;16.142;2023-07-13T16:04:18;3.02;;;1.27;;
49109;SDS011;34921;52.320;16.142;2023-07-13T16:06:47;3.80;;;1.23;;
49109;SDS011;34921;52.320;16.142;2023-07-13T16:09:19;5.03;;;1.63;;